Time;durP1;ratioP1;P1;durP2;ratioP2;P2;SDS_P1;SDS_P2;PMS_P1;PMS_P2;Temp;Humidity;BMP_temperature;BMP_pressure;BME280_temperature;BME280_humidity;BME280_pressure;Samples;Min_cycle;Max_cycle;Signal;HPM_P1;HPM_P2
2024/03/31 00:02:11;;;;;;;2.03;1.70;;;;;;;14.63;55.56;99343.47;15444359;28;20061;-53
2024/03/31 00:09:52;;;;;;;5.15;2.72;;;;;;;14.93;55.29;99327.25;15445552;28;20088;-50
2024/03/31 00:17:28;;;;;;;2.50;1.23;;;;;;;14.63;57.46;99322.69;15421069;28;20043;-47
2024/03/31 00:25:03;;;;;;;22.83;4.65;;;;;;;13.57;58.63;99309.84;15421885;28;20050;-49
2024/03/31 00:32:36;;;;;;;18.10;3.20;;;;;;;13.99;58.73;99315.91;15419219;28;20129;-49
2024/03/31 00:40:11;;;;;;;3.83;2.25;;;;;;;14.50;58.08;99312.41;15425637;28;20411;-48
2024/03/31 00:47:45;;;;;;;5.68;3.65;;;;;;;14.41;59.03;99311.31;15419606;28;20569;-48
2024/03/31 00:55:21;;;;;;;1.48;1.25;;;;;;;14.37;57.24;99311.06;15413279;28;20039;-49
2024/03/31 01:02:55;;;;;;;1.92;1.67;;;;;;;14.35;59.28;99309.69;15417357;28;20562;-49
2024/03/31 01:10:32;;;;;;;10.93;3.00;;;;;;;14.20;59.61;99294.31;15416780;28;20070;-51
2024/03/31 01:18:09;;;;;;;24.20;2.83;;;;;;;14.01;60.26;99291.34;15407188;28;20043;-54
2024/03/31 01:25:47;;;;;;;9.75;1.35;;;;;;;13.78;61.15;99281.84;15415478;28;20050;-48
2024/03/31 01:33:28;;;;;;;5.80;3.37;;;;;;;13.73;61.66;99271.88;15416340;28;20524;-50
2024/03/31 01:41:03;;;;;;;2.90;2.50;;;;;;;13.71;61.63;99270.53;15443728;28;20104;-49
2024/03/31 01:48:38;;;;;;;6.40;2.13;;;;;;;13.46;62.58;99280.16;15417841;28;20110;-51
2024/03/31 01:56:14;;;;;;;5.80;2.35;;;;;;;13.42;63.29;99279.06;15406415;28;20108;-48
2024/03/31 02:03:49;;;;;;;2.22;2.03;;;;;;;13.41;62.79;99279.34;15447760;28;20130;-46
2024/03/31 02:11:28;;;;;;;32.33;4.15;;;;;;;13.24;63.42;99274.97;15415167;28;20042;-49
2024/03/31 02:19:02;;;;;;;16.30;4.25;;;;;;;13.11;63.91;99275.44;15412987;28;20035;-49
2024/03/31 02:26:37;;;;;;;0.95;0.82;;;;;;;13.03;64.70;99284.00;15417787;28;20046;-49
2024/03/31 02:34:15;;;;;;;32.45;3.40;;;;;;;13.00;64.23;99279.94;15424210;28;20047;-47
2024/03/31 02:42:09;;;;;;;8.35;4.72;;;;;;;12.63;65.92;99290.75;15405597;28;20389;-47
2024/03/31 02:49:48;;;;;;;2.95;1.40;;;;;;;12.42;66.84;99286.31;15428936;28;20066;-49
2024/03/31 02:57:32;;;;;;;17.53;3.93;;;;;;;12.61;65.73;99282.13;15414449;28;20047;-47
2024/03/31 03:05:08;;;;;;;9.32;2.92;;;;;;;12.46;66.52;99285.53;15413439;28;20430;-52
2024/03/31 03:12:47;;;;;;;10.73;3.03;;;;;;;12.32;66.37;99315.84;15412885;28;20078;-46
2024/03/31 03:20:22;;;;;;;5.47;2.97;;;;;;;12.36;65.92;99307.00;15412193;28;20031;-53
2024/03/31 03:27:58;;;;;;;4.00;3.60;;;;;;;12.11;66.87;99309.44;15417664;28;20043;-50
2024/03/31 03:35:37;;;;;;;2.25;1.73;;;;;;;12.08;66.55;99312.69;15423351;28;20043;-51
2024/03/31 03:43:17;;;;;;;0.50;0.50;;;;;;;11.93;66.87;99316.81;15408366;28;20535;-50
2024/03/31 03:50:56;;;;;;;1.98;1.77;;;;;;;11.78;68.23;99303.19;15495031;28;20199;-50
2024/03/31 03:58:31;;;;;;;3.15;2.25;;;;;;;11.78;68.28;99300.50;15424842;28;20047;-52
2024/03/31 04:06:13;;;;;;;11.15;7.18;;;;;;;11.73;68.22;99305.81;15414217;28;20045;-49
2024/03/31 04:13:53;;;;;;;5.97;2.42;;;;;;;11.58;68.15;99284.97;15433105;28;20487;-50
2024/03/31 04:21:28;;;;;;;1.00;1.00;;;;;;;11.18;69.63;99294.19;15422461;28;20038;-51
2024/03/31 04:29:04;;;;;;;39.90;3.22;;;;;;;11.21;69.05;99309.81;15413432;28;20087;-49
2024/03/31 04:36:40;;;;;;;3.90;3.15;;;;;;;11.10;68.88;99340.28;15431573;28;20039;-48
2024/03/31 04:44:17;;;;;;;15.95;5.25;;;;;;;10.32;72.84;99334.00;15420274;28;20112;-48
2024/03/31 04:51:56;;;;;;;2.20;2.00;;;;;;;10.03;73.75;99345.81;15428735;28;20058;-50
2024/03/31 04:59:35;;;;;;;1.20;0.93;;;;;;;10.78;71.22;99323.19;15416751;28;20047;-50
2024/03/31 05:07:15;;;;;;;6.85;2.47;;;;;;;11.02;70.40;99331.84;15440456;28;20031;-52
2024/03/31 05:14:53;;;;;;;16.52;2.88;;;;;;;11.03;70.34;99311.97;15404803;28;20043;-47
2024/03/31 05:22:30;;;;;;;2.47;2.05;;;;;;;10.96;70.96;99301.44;15412371;28;20062;-49
2024/03/31 05:30:22;;;;;;;15.52;1.55;;;;;;;11.14;69.90;99322.59;15418444;28;20138;-47
2024/03/31 05:38:05;;;;;;;18.70;2.42;;;;;;;11.15;70.40;99334.97;15413780;28;20047;-49
2024/03/31 05:45:42;;;;;;;1.13;1.08;;;;;;;10.75;71.73;99323.66;15440386;28;20060;-47
2024/03/31 05:53:16;;;;;;;0.32;0.32;;;;;;;11.29;69.60;99315.81;15412427;28;20392;-47
2024/03/31 06:00:57;;;;;;;0.82;0.82;;;;;;;11.47;68.98;99321.69;15402203;28;20039;-48
2024/03/31 06:08:35;;;;;;;1.80;1.23;;;;;;;10.78;72.18;99321.31;15425036;28;20136;-49
2024/03/31 06:16:10;;;;;;;13.07;5.25;;;;;;;11.50;70.10;99312.28;15411033;28;20043;-47
2024/03/31 06:23:44;;;;;;;3.03;2.22;;;;;;;11.80;70.48;99317.22;15416161;28;20049;-46
2024/03/31 06:31:20;;;;;;;2.78;2.40;;;;;;;12.08;69.25;99309.97;15415844;28;20127;-50
2024/03/31 06:38:58;;;;;;;2.45;2.25;;;;;;;12.24;68.72;99287.50;15471253;28;20445;-48
2024/03/31 06:46:34;;;;;;;4.53;2.58;;;;;;;12.48;68.77;99286.09;15396401;28;20043;-49
2024/03/31 06:54:09;;;;;;;5.07;2.28;;;;;;;12.62;69.03;99286.44;15412486;28;20035;-47
2024/03/31 07:01:46;;;;;;;5.18;4.13;;;;;;;12.51;69.29;99296.34;15418864;28;20491;-54
2024/03/31 07:09:21;;;;;;;12.68;4.78;;;;;;;12.91;68.85;99281.50;15428040;28;20045;-52
2024/03/31 07:17:01;;;;;;;7.03;4.65;;;;;;;13.23;68.13;99296.78;15469975;28;20083;-54
2024/03/31 07:24:37;;;;;;;0.52;0.52;;;;;;;12.87;69.75;99285.81;15405741;28;20676;-49
2024/03/31 07:32:14;;;;;;;1.95;1.60;;;;;;;12.72;70.66;99285.69;15415015;28;20039;-48
2024/03/31 07:39:48;;;;;;;17.55;6.50;;;;;;;13.53;70.23;99298.78;15421818;28;20035;-49
2024/03/31 07:47:23;;;;;;;0.90;0.77;;;;;;;14.04;69.47;99302.41;15465243;28;20536;-54
2024/03/31 07:54:58;;;;;;;25.73;4.85;;;;;;;14.77;66.17;99288.63;15421638;28;20051;-50
2024/03/31 08:02:35;;;;;;;4.20;3.28;;;;;;;14.77;66.78;99275.13;15410578;28;20645;-49
2024/03/31 08:10:09;;;;;;;2.88;1.90;;;;;;;15.26;64.61;99282.53;15433274;28;20043;-51
2024/03/31 08:17:46;;;;;;;4.65;2.28;;;;;;;15.62;62.98;99281.53;15411779;28;20510;-48
2024/03/31 08:25:19;;;;;;;7.70;1.95;;;;;;;16.03;62.96;99261.28;15440297;28;20497;-52
2024/03/31 08:33:03;;;;;;;42.50;2.90;;;;;;;15.94;61.96;99283.81;15414898;28;20047;-50
2024/03/31 08:40:39;;;;;;;15.25;4.28;;;;;;;16.31;59.56;99326.59;15415587;28;20380;-49
2024/03/31 08:48:20;;;;;;;12.93;4.57;;;;;;;17.30;57.27;99359.59;15408801;28;20077;-56
2024/03/31 08:55:55;;;;;;;8.70;3.87;;;;;;;18.78;53.15;99354.81;15411272;28;20064;-48
2024/03/31 09:03:31;;;;;;;6.57;2.97;;;;;;;18.00;55.12;99363.59;15441112;28;20035;-49
2024/03/31 09:11:07;;;;;;;2.47;1.08;;;;;;;17.33;56.64;99382.59;15424366;28;20039;-52
2024/03/31 09:18:45;;;;;;;12.55;4.20;;;;;;;17.33;57.46;99388.03;15411669;28;20070;-48
2024/03/31 09:26:23;;;;;;;17.85;3.15;;;;;;;19.19;52.50;99389.44;15410949;28;20059;-52
2024/03/31 09:34:05;;;;;;;14.70;4.80;;;;;;;19.03;51.81;99358.22;15440226;28;20044;-50
2024/03/31 09:41:38;;;;;;;4.95;3.33;;;;;;;20.13;50.66;99333.63;15409895;28;20047;-48
2024/03/31 09:49:24;;;;;;;1.13;1.08;;;;;;;20.59;49.31;99340.72;15437926;28;20050;-48
2024/03/31 09:57:03;;;;;;;3.47;1.92;;;;;;;20.33;49.93;99344.06;15438324;28;20454;-54
2024/03/31 10:04:42;;;;;;;11.90;4.70;;;;;;;20.20;49.53;99338.66;15423553;28;20501;-51
2024/03/31 10:12:17;;;;;;;1.67;1.58;;;;;;;20.27;48.13;99352.66;15477708;28;20066;-51
2024/03/31 10:19:55;;;;;;;10.10;3.45;;;;;;;20.43;48.81;99364.81;15412569;28;20043;-45
2024/03/31 10:27:29;;;;;;;4.78;3.63;;;;;;;21.77;45.80;99344.63;15418789;28;20046;-48
2024/03/31 10:35:09;;;;;;;2.92;2.42;;;;;;;19.46;50.85;99342.41;15433531;28;20112;-49
2024/03/31 10:42:43;;;;;;;24.27;3.78;;;;;;;21.53;45.96;99347.78;15418144;28;20035;-47
2024/03/31 10:50:24;;;;;;;4.68;1.63;;;;;;;22.08;46.29;99366.38;15418338;28;20051;-50
2024/03/31 10:58:01;;;;;;;11.43;2.53;;;;;;;21.36;46.89;99380.50;15419298;28;20591;-48
2024/03/31 11:05:38;;;;;;;3.10;2.47;;;;;;;21.23;46.67;99356.81;15419611;28;20521;-47
2024/03/31 11:13:13;;;;;;;2.30;1.52;;;;;;;21.26;46.86;99367.88;15424283;28;20046;-54
2024/03/31 11:20:49;;;;;;;3.80;1.27;;;;;;;21.66;44.98;99367.91;15431319;28;20088;-50
2024/03/31 11:28:24;;;;;;;1.63;1.52;;;;;;;22.25;44.79;99367.53;15425786;28;20054;-51
2024/03/31 11:36:01;;;;;;;4.20;2.40;;;;;;;22.30;44.54;99379.13;15443211;28;20431;-50
2024/03/31 11:43:36;;;;;;;2.83;1.42;;;;;;;22.63;43.74;99373.94;15428313;28;20031;-52
2024/03/31 11:51:13;;;;;;;2.33;2.08;;;;;;;22.97;42.07;99371.50;15430487;28;20108;-46
2024/03/31 11:58:46;;;;;;;3.42;1.52;;;;;;;23.87;42.79;99347.41;15429029;28;20035;-49
2024/03/31 12:06:23;;;;;;;13.70;2.38;;;;;;;24.31;42.22;99309.50;15424542;28;20049;-49
2024/03/31 12:13:57;;;;;;;2.75;1.55;;;;;;;24.51;39.82;99299.66;15410451;28;20149;-47
2024/03/31 12:21:33;;;;;;;1.20;0.95;;;;;;;23.68;41.34;99292.25;15416181;28;20126;-47
2024/03/31 12:29:07;;;;;;;6.93;1.88;;;;;;;22.09;44.22;99298.84;15430497;28;20111;-49
2024/03/31 12:36:43;;;;;;;1.40;1.20;;;;;;;22.97;43.70;99295.69;15452385;28;20054;-53
2024/03/31 12:44:16;;;;;;;2.15;1.77;;;;;;;22.52;42.64;99276.16;15417214;28;20340;-48
2024/03/31 12:51:53;;;;;;;5.28;3.35;;;;;;;23.37;42.46;99273.44;15423116;28;20042;-54
2024/03/31 12:59:27;;;;;;;5.70;2.28;;;;;;;22.71;43.90;99305.88;15418691;28;20130;-48
2024/03/31 13:07:02;;;;;;;37.38;2.22;;;;;;;23.02;42.79;99309.19;15415729;28;20627;-51
2024/03/31 13:14:36;;;;;;;3.28;1.58;;;;;;;23.08;42.35;99299.69;15414784;28;20070;-51
2024/03/31 13:22:15;;;;;;;0.20;0.20;;;;;;;22.46;43.45;99288.41;15418030;28;20039;-47
2024/03/31 13:29:49;;;;;;;18.65;3.92;;;;;;;22.36;44.04;99281.34;15418209;28;20096;-48
2024/03/31 13:37:24;;;;;;;2.47;1.02;;;;;;;22.56;44.07;99288.84;15423033;28;20043;-52
2024/03/31 13:45:03;;;;;;;6.03;3.03;;;;;;;22.04;44.13;99290.81;15425528;28;20043;-48
2024/03/31 13:52:37;;;;;;;2.33;1.33;;;;;;;22.65;43.33;99280.63;15411088;28;20050;-52
2024/03/31 14:00:12;;;;;;;9.43;3.92;;;;;;;22.29;44.13;99281.84;15407441;28;20176;-53
2024/03/31 14:07:47;;;;;;;20.83;2.15;;;;;;;21.02;45.66;99272.78;15408338;28;20101;-49
2024/03/31 14:15:22;;;;;;;1.50;1.13;;;;;;;21.11;45.88;99265.41;15391763;28;20047;-48
2024/03/31 14:22:57;;;;;;;1.80;1.48;;;;;;;20.75;46.96;99278.44;15404676;28;20071;-51
2024/03/31 14:30:33;;;;;;;7.28;1.95;;;;;;;21.07;46.58;99280.00;15401747;28;20033;-48
2024/03/31 14:38:09;;;;;;;6.93;2.83;;;;;;;20.92;47.28;99291.34;15411965;28;20488;-50
2024/03/31 14:45:45;;;;;;;3.05;2.60;;;;;;;20.51;48.56;99304.13;15406458;28;20048;-49
2024/03/31 14:53:20;;;;;;;1.95;1.77;;;;;;;20.08;49.77;99304.59;15399191;28;20232;-46
2024/03/31 15:00:56;;;;;;;23.45;3.67;;;;;;;20.32;49.95;99306.19;15403401;28;20100;-50
2024/03/31 15:08:31;;;;;;;3.10;1.80;;;;;;;20.46;50.42;99306.94;15412149;28;20150;-51
2024/03/31 15:16:05;;;;;;;5.90;3.25;;;;;;;20.39;50.80;99304.66;15403426;28;20534;-45
2024/03/31 15:23:40;;;;;;;0.25;0.25;;;;;;;20.35;51.29;99313.78;15400510;28;20038;-48
2024/03/31 15:31:18;;;;;;;3.75;2.05;;;;;;;19.68;51.32;99309.06;15412246;28;20047;-48
2024/03/31 15:38:53;;;;;;;4.30;2.42;;;;;;;19.80;50.81;99314.75;15427898;28;20050;-49
2024/03/31 15:46:29;;;;;;;2.40;1.98;;;;;;;20.03;51.10;99312.06;15396607;28;20435;-51
2024/03/31 15:54:05;;;;;;;4.70;2.13;;;;;;;19.92;51.25;99305.25;15396992;28;20046;-52
2024/03/31 16:01:39;;;;;;;2.20;1.25;;;;;;;19.82;51.94;99287.25;15422120;28;20051;-48
2024/03/31 16:09:17;;;;;;;3.03;2.28;;;;;;;19.80;52.16;99268.47;15415541;28;20108;-47
2024/03/31 16:16:51;;;;;;;1.25;1.08;;;;;;;19.19;52.73;99260.78;15436803;28;20057;-51
2024/03/31 16:24:28;;;;;;;0.38;0.38;;;;;;;19.30;52.26;99264.91;15415359;28;20563;-48
2024/03/31 16:32:04;;;;;;;0.52;0.52;;;;;;;19.13;52.32;99262.00;15419744;28;20039;-50
2024/03/31 16:39:39;;;;;;;1.52;1.42;;;;;;;19.41;52.24;99263.59;15445247;28;20039;-50
2024/03/31 16:47:15;;;;;;;2.83;1.90;;;;;;;19.07;52.49;99264.84;15447265;28;20074;-48
2024/03/31 16:54:50;;;;;;;0.68;0.65;;;;;;;19.17;51.58;99260.31;15399346;28;20050;-48
2024/03/31 17:02:25;;;;;;;1.80;1.23;;;;;;;19.00;52.34;99263.63;15413073;28;20035;-51
2024/03/31 17:10:00;;;;;;;2.22;1.70;;;;;;;19.20;52.38;99265.91;15400546;28;20043;-50
2024/03/31 17:17:34;;;;;;;1.60;1.25;;;;;;;18.98;52.94;99257.66;15416961;28;20485;-48
2024/03/31 17:25:11;;;;;;;1.85;1.23;;;;;;;18.79;53.68;99255.88;15414929;28;20046;-52
2024/03/31 17:32:47;;;;;;;1.55;0.98;;;;;;;18.57;54.35;99255.69;15419494;28;20043;-47
2024/03/31 17:40:23;;;;;;;1.20;0.70;;;;;;;18.05;55.77;99284.81;15434991;28;20727;-49
2024/03/31 17:47:59;;;;;;;1.70;1.52;;;;;;;17.99;55.63;99286.78;15416355;28;20047;-49
2024/03/31 17:55:44;;;;;;;2.40;1.42;;;;;;;17.68;56.84;99297.25;15490033;28;20053;-47
2024/03/31 18:03:18;;;;;;;0.55;0.40;;;;;;;17.30;58.25;99308.06;15501472;28;20042;-48
2024/03/31 18:10:54;;;;;;;4.15;1.83;;;;;;;16.77;59.54;99308.06;15427628;28;20345;-46
2024/03/31 18:18:31;;;;;;;5.68;2.47;;;;;;;16.67;59.90;99302.72;15463928;28;20043;-48
2024/03/31 18:26:07;;;;;;;1.23;0.70;;;;;;;16.35;60.93;99305.19;15390368;28;20055;-48
2024/03/31 18:33:42;;;;;;;2.00;1.13;;;;;;;16.42;60.64;99313.81;15402730;28;20067;-47
2024/03/31 18:41:17;;;;;;;4.15;2.40;;;;;;;16.30;60.76;99325.78;15430191;28;20065;-47
2024/03/31 18:48:51;;;;;;;1.27;1.13;;;;;;;15.68;61.98;99297.53;15395602;28;20484;-50
2024/03/31 18:56:28;;;;;;;1.40;1.23;;;;;;;15.55;63.37;99327.84;15401585;28;20054;-48
2024/03/31 19:04:04;;;;;;;2.72;1.80;;;;;;;15.23;63.97;99339.84;15451902;28;20070;-49
2024/03/31 19:11:43;;;;;;;0.82;0.82;;;;;;;15.11;64.95;99352.88;15407939;28;20088;-47
2024/03/31 19:19:17;;;;;;;6.72;2.88;;;;;;;14.76;66.00;99345.63;15477281;28;20053;-48
2024/03/31 19:26:53;;;;;;;1.35;1.25;;;;;;;14.48;66.82;99344.28;15416929;28;20046;-47
2024/03/31 19:34:26;;;;;;;3.20;2.30;;;;;;;14.41;66.47;99349.94;15429824;28;20398;-47
2024/03/31 19:42:01;;;;;;;1.65;1.40;;;;;;;14.00;67.33;99308.59;15426238;28;20082;-49
2024/03/31 19:49:38;;;;;;;2.80;2.58;;;;;;;14.15;67.63;99348.28;15575785;23;20037;-53
2024/03/31 19:57:14;;;;;;;3.00;1.88;;;;;;;13.97;67.85;99352.28;15618523;28;20064;-55
2024/03/31 20:04:47;;;;;;;2.47;1.95;;;;;;;14.00;67.67;99354.47;15612004;28;20049;-58
2024/03/31 20:12:24;;;;;;;0.73;0.73;;;;;;;13.74;68.34;99346.28;15604661;28;20049;-50
2024/03/31 20:19:58;;;;;;;2.95;2.45;;;;;;;13.19;71.12;99354.91;15587584;28;20530;-54
2024/03/31 20:27:34;;;;;;;5.75;3.85;;;;;;;13.18;70.81;99358.69;15604615;28;20049;-51
2024/03/31 20:35:13;;;;;;;2.78;2.58;;;;;;;13.29;69.60;99368.50;15603056;28;20095;-52
2024/03/31 20:42:48;;;;;;;4.60;3.10;;;;;;;13.30;70.28;99358.53;15610370;28;20473;-51
2024/03/31 20:50:23;;;;;;;8.85;4.00;;;;;;;13.11;70.95;99348.16;15617059;28;20072;-54
2024/03/31 20:57:58;;;;;;;3.95;3.20;;;;;;;12.95;71.14;99343.75;15607457;28;20045;-54
2024/03/31 21:05:32;;;;;;;7.30;4.43;;;;;;;12.65;71.54;99331.69;15609160;28;20049;-53
2024/03/31 21:13:07;;;;;;;4.65;4.15;;;;;;;13.00;70.43;99333.81;15612272;28;20046;-53
2024/03/31 21:20:48;;;;;;;10.30;6.33;;;;;;;12.81;70.44;99323.72;15610050;28;20041;-52
2024/03/31 21:28:24;;;;;;;5.88;3.65;;;;;;;12.58;71.66;99314.94;15615085;28;20044;-55
2024/03/31 21:35:58;;;;;;;5.70;4.07;;;;;;;12.48;72.17;99304.91;15609121;28;20049;-56
2024/03/31 21:43:33;;;;;;;7.90;6.45;;;;;;;12.41;73.00;99303.53;15611576;28;20316;-55
2024/03/31 21:51:08;;;;;;;5.15;4.05;;;;;;;12.56;72.01;99311.72;15595154;28;20521;-55
2024/03/31 21:58:43;;;;;;;4.95;4.28;;;;;;;12.34;71.80;99302.94;15607817;28;20053;-54
2024/03/31 22:06:19;;;;;;;5.15;4.65;;;;;;;12.48;71.30;99296.84;15599022;28;20045;-54
2024/03/31 22:13:56;;;;;;;4.82;4.32;;;;;;;12.39;71.23;99298.38;15605831;28;20076;-55
2024/03/31 22:21:30;;;;;;;3.90;3.50;;;;;;;12.07;72.74;99284.13;15595011;28;20038;-52
2024/03/31 22:29:06;;;;;;;8.57;3.45;;;;;;;12.10;71.88;99271.00;15605286;28;20084;-51
2024/03/31 22:36:42;;;;;;;1.65;1.55;;;;;;;12.15;72.43;99264.84;15597204;28;20057;-51
2024/03/31 22:44:19;;;;;;;1.02;0.93;;;;;;;12.22;73.45;99258.19;15602970;28;20126;-55
2024/03/31 22:51:59;;;;;;;3.53;2.10;;;;;;;12.43;72.94;99283.34;15587938;28;20049;-53
2024/03/31 22:59:33;;;;;;;;;;;;;;;12.19;73.24;99309.81;15598974;28;20048;-54
2024/03/31 23:07:07;;;;;;;3.33;2.90;;;;;;;11.97;74.18;99298.28;15598430;28;19921;-50
2024/03/31 23:14:43;;;;;;;5.18;2.58;;;;;;;12.01;73.07;99291.34;15611688;28;20046;-51
2024/03/31 23:22:21;;;;;;;2.10;1.55;;;;;;;11.92;73.16;99264.09;15616344;28;20638;-51
2024/03/31 23:29:57;;;;;;;6.30;2.10;;;;;;;11.70;73.50;99257.94;15610069;28;20038;-52
2024/03/31 23:37:30;;;;;;;4.63;3.80;;;;;;;11.55;73.06;99252.41;15615839;28;20046;-54
2024/03/31 23:45:06;;;;;;;0.98;0.88;;;;;;;11.46;73.55;99252.06;15635180;28;20462;-54
2024/03/31 23:52:39;;;;;;;4.25;2.67;;;;;;;11.22;74.82;99246.97;15608875;28;20034;-52
